sensor_id;sensor_type;location;lat;lon;timestamp;P1;durP1;ratioP1;P2;durP2;ratioP2
20363;SDS011;10340;53.664;9.908;2022-10-16T00:00:38;6.47;;;5.82;;
20363;SDS011;10340;53.664;9.908;2022-10-16T00:03:06;6.95;;;5.55;;
20363;SDS011;10340;53.664;9.908;2022-10-16T00:05:37;6.65;;;5.85;;
20363;SDS011;10340;53.664;9.908;2022-10-16T00:08:05;8.05;;;5.90;;
20363;SDS011;10340;53.664;9.908;2022-10-16T00:10:32;7.22;;;5.60;;
20363;SDS011;10340;53.664;9.908;2022-10-16T00:13:00;6.80;;;6.18;;
20363;SDS011;10340;53.664;9.908;2022-10-16T00:15:28;6.57;;;5.70;;
20363;SDS011;10340;53.664;9.908;2022-10-16T00:17:55;7.22;;;5.93;;
20363;SDS011;10340;53.664;9.908;2022-10-16T00:20:21;8.93;;;6.10;;
20363;SDS011;10340;53.664;9.908;2022-10-16T00:22:48;5.78;;;5.18;;
20363;SDS011;10340;53.664;9.908;2022-10-16T00:25:15;7.35;;;6.10;;
20363;SDS011;10340;53.664;9.908;2022-10-16T00:27:42;7.05;;;5.90;;
20363;SDS011;10340;53.664;9.908;2022-10-16T00:30:09;5.78;;;5.20;;
20363;SDS011;10340;53.664;9.908;2022-10-16T00:32:37;6.40;;;5.63;;
20363;SDS011;10340;53.664;9.908;2022-10-16T00:35:05;5.60;;;5.00;;
20363;SDS011;10340;53.664;9.908;2022-10-16T00:37:32;5.80;;;5.20;;
20363;SDS011;10340;53.664;9.908;2022-10-16T00:39:59;5.20;;;4.65;;
20363;SDS011;10340;53.664;9.908;2022-10-16T00:42:26;14.05;;;6.20;;
20363;SDS011;10340;53.664;9.908;2022-10-16T00:44:53;4.68;;;4.03;;
20363;SDS011;10340;53.664;9.908;2022-10-16T00:47:22;6.47;;;4.28;;
20363;SDS011;10340;53.664;9.908;2022-10-16T00:49:55;4.68;;;3.65;;
20363;SDS011;10340;53.664;9.908;2022-10-16T00:52:25;5.40;;;3.55;;
20363;SDS011;10340;53.664;9.908;2022-10-16T00:54:52;6.35;;;3.35;;
20363;SDS011;10340;53.664;9.908;2022-10-16T00:57:20;6.15;;;3.58;;
20363;SDS011;10340;53.664;9.908;2022-10-16T00:59:47;4.82;;;3.25;;
20363;SDS011;10340;53.664;9.908;2022-10-16T01:02:15;4.25;;;3.05;;
20363;SDS011;10340;53.664;9.908;2022-10-16T01:04:43;3.17;;;2.88;;
20363;SDS011;10340;53.664;9.908;2022-10-16T01:07:14;4.43;;;2.92;;
20363;SDS011;10340;53.664;9.908;2022-10-16T01:09:51;3.25;;;2.85;;
20363;SDS011;10340;53.664;9.908;2022-10-16T01:12:27;4.03;;;2.70;;
20363;SDS011;10340;53.664;9.908;2022-10-16T01:15:03;3.17;;;2.78;;
20363;SDS011;10340;53.664;9.908;2022-10-16T01:17:38;4.68;;;2.95;;
20363;SDS011;10340;53.664;9.908;2022-10-16T01:20:10;3.13;;;2.83;;
20363;SDS011;10340;53.664;9.908;2022-10-16T01:22:50;4.22;;;2.75;;
20363;SDS011;10340;53.664;9.908;2022-10-16T01:25:30;4.53;;;2.97;;
20363;SDS011;10340;53.664;9.908;2022-10-16T01:28:21;2.42;;;2.22;;
20363;SDS011;10340;53.664;9.908;2022-10-16T01:30:52;3.05;;;2.75;;
20363;SDS011;10340;53.664;9.908;2022-10-16T01:33:25;3.38;;;3.03;;
20363;SDS011;10340;53.664;9.908;2022-10-16T01:36:02;3.90;;;2.47;;
20363;SDS011;10340;53.664;9.908;2022-10-16T01:38:34;3.25;;;2.70;;
20363;SDS011;10340;53.664;9.908;2022-10-16T01:41:04;5.22;;;3.03;;
20363;SDS011;10340;53.664;9.908;2022-10-16T01:43:37;2.60;;;2.00;;
20363;SDS011;10340;53.664;9.908;2022-10-16T01:46:08;3.17;;;2.38;;
20363;SDS011;10340;53.664;9.908;2022-10-16T01:48:36;4.97;;;2.40;;
20363;SDS011;10340;53.664;9.908;2022-10-16T01:51:04;2.95;;;2.42;;
20363;SDS011;10340;53.664;9.908;2022-10-16T01:53:34;3.22;;;2.60;;
20363;SDS011;10340;53.664;9.908;2022-10-16T01:56:01;3.22;;;2.33;;
20363;SDS011;10340;53.664;9.908;2022-10-16T01:58:32;2.25;;;2.05;;
20363;SDS011;10340;53.664;9.908;2022-10-16T02:01:03;2.47;;;2.28;;
20363;SDS011;10340;53.664;9.908;2022-10-16T02:03:31;4.20;;;2.40;;
20363;SDS011;10340;53.664;9.908;2022-10-16T02:06:00;2.63;;;2.42;;
20363;SDS011;10340;53.664;9.908;2022-10-16T02:08:27;3.35;;;2.03;;
20363;SDS011;10340;53.664;9.908;2022-10-16T02:10:55;3.35;;;2.50;;
20363;SDS011;10340;53.664;9.908;2022-10-16T02:13:24;4.05;;;2.13;;
20363;SDS011;10340;53.664;9.908;2022-10-16T02:15:54;4.20;;;2.00;;
20363;SDS011;10340;53.664;9.908;2022-10-16T02:18:22;3.22;;;2.30;;
20363;SDS011;10340;53.664;9.908;2022-10-16T02:20:52;3.25;;;2.00;;
20363;SDS011;10340;53.664;9.908;2022-10-16T02:23:23;3.85;;;2.17;;
20363;SDS011;10340;53.664;9.908;2022-10-16T02:25:56;2.15;;;1.95;;
20363;SDS011;10340;53.664;9.908;2022-10-16T02:28:27;3.83;;;2.35;;
20363;SDS011;10340;53.664;9.908;2022-10-16T02:31:00;5.97;;;2.13;;
20363;SDS011;10340;53.664;9.908;2022-10-16T02:33:32;1.80;;;1.58;;
20363;SDS011;10340;53.664;9.908;2022-10-16T02:35:59;1.88;;;1.77;;
20363;SDS011;10340;53.664;9.908;2022-10-16T02:38:26;1.70;;;1.60;;
20363;SDS011;10340;53.664;9.908;2022-10-16T02:40:55;1.90;;;1.50;;
20363;SDS011;10340;53.664;9.908;2022-10-16T02:43:22;2.60;;;2.00;;
20363;SDS011;10340;53.664;9.908;2022-10-16T02:45:51;4.47;;;1.80;;
20363;SDS011;10340;53.664;9.908;2022-10-16T02:48:18;2.20;;;1.75;;
20363;SDS011;10340;53.664;9.908;2022-10-16T02:50:46;2.13;;;1.60;;
20363;SDS011;10340;53.664;9.908;2022-10-16T02:53:13;2.45;;;1.90;;
20363;SDS011;10340;53.664;9.908;2022-10-16T02:55:40;3.35;;;1.80;;
20363;SDS011;10340;53.664;9.908;2022-10-16T02:58:07;2.40;;;1.40;;
20363;SDS011;10340;53.664;9.908;2022-10-16T03:00:33;1.67;;;1.58;;
20363;SDS011;10340;53.664;9.908;2022-10-16T03:03:00;1.70;;;1.50;;
20363;SDS011;10340;53.664;9.908;2022-10-16T03:05:27;2.08;;;1.88;;
20363;SDS011;10340;53.664;9.908;2022-10-16T03:07:55;2.40;;;1.40;;
20363;SDS011;10340;53.664;9.908;2022-10-16T03:10:25;3.05;;;1.63;;
20363;SDS011;10340;53.664;9.908;2022-10-16T03:12:51;3.53;;;1.75;;
20363;SDS011;10340;53.664;9.908;2022-10-16T03:15:18;1.90;;;1.25;;
20363;SDS011;10340;53.664;9.908;2022-10-16T03:17:45;3.60;;;1.40;;
20363;SDS011;10340;53.664;9.908;2022-10-16T03:20:12;1.40;;;1.30;;
20363;SDS011;10340;53.664;9.908;2022-10-16T03:22:39;2.17;;;1.55;;
20363;SDS011;10340;53.664;9.908;2022-10-16T03:25:07;2.42;;;1.63;;
20363;SDS011;10340;53.664;9.908;2022-10-16T03:27:34;1.58;;;1.48;;
20363;SDS011;10340;53.664;9.908;2022-10-16T03:30:01;3.42;;;1.55;;
20363;SDS011;10340;53.664;9.908;2022-10-16T03:32:28;1.58;;;1.45;;
20363;SDS011;10340;53.664;9.908;2022-10-16T03:34:55;2.22;;;1.38;;
20363;SDS011;10340;53.664;9.908;2022-10-16T03:37:22;3.17;;;1.77;;
20363;SDS011;10340;53.664;9.908;2022-10-16T03:39:49;1.60;;;1.50;;
20363;SDS011;10340;53.664;9.908;2022-10-16T03:42:17;2.88;;;1.45;;
20363;SDS011;10340;53.664;9.908;2022-10-16T03:44:44;4.53;;;1.50;;
20363;SDS011;10340;53.664;9.908;2022-10-16T03:47:11;1.63;;;1.50;;
20363;SDS011;10340;53.664;9.908;2022-10-16T03:49:38;1.67;;;1.50;;
20363;SDS011;10340;53.664;9.908;2022-10-16T03:52:05;2.97;;;1.73;;
20363;SDS011;10340;53.664;9.908;2022-10-16T03:54:31;1.95;;;1.48;;
20363;SDS011;10340;53.664;9.908;2022-10-16T03:56:58;2.10;;;1.50;;
20363;SDS011;10340;53.664;9.908;2022-10-16T03:59:26;2.17;;;1.55;;
20363;SDS011;10340;53.664;9.908;2022-10-16T04:01:53;2.03;;;1.73;;
20363;SDS011;10340;53.664;9.908;2022-10-16T04:04:20;5.30;;;1.70;;
20363;SDS011;10340;53.664;9.908;2022-10-16T04:06:47;2.15;;;1.70;;
20363;SDS011;10340;53.664;9.908;2022-10-16T04:09:14;2.72;;;1.75;;
20363;SDS011;10340;53.664;9.908;2022-10-16T04:11:40;2.55;;;1.42;;
20363;SDS011;10340;53.664;9.908;2022-10-16T04:14:07;4.47;;;1.60;;
20363;SDS011;10340;53.664;9.908;2022-10-16T04:16:35;1.63;;;1.52;;
20363;SDS011;10340;53.664;9.908;2022-10-16T04:19:02;2.45;;;1.50;;
20363;SDS011;10340;53.664;9.908;2022-10-16T04:21:29;2.42;;;1.60;;
20363;SDS011;10340;53.664;9.908;2022-10-16T04:23:56;1.90;;;1.70;;
20363;SDS011;10340;53.664;9.908;2022-10-16T04:26:23;2.22;;;1.60;;
20363;SDS011;10340;53.664;9.908;2022-10-16T04:28:49;1.85;;;1.30;;
20363;SDS011;10340;53.664;9.908;2022-10-16T04:31:16;2.25;;;1.52;;
20363;SDS011;10340;53.664;9.908;2022-10-16T04:33:44;2.80;;;1.38;;
20363;SDS011;10340;53.664;9.908;2022-10-16T04:36:11;2.28;;;1.30;;
20363;SDS011;10340;53.664;9.908;2022-10-16T04:38:38;1.77;;;1.65;;
20363;SDS011;10340;53.664;9.908;2022-10-16T04:41:06;2.10;;;1.58;;
20363;SDS011;10340;53.664;9.908;2022-10-16T04:43:33;3.92;;;1.88;;
20363;SDS011;10340;53.664;9.908;2022-10-16T04:46:00;3.95;;;1.60;;
20363;SDS011;10340;53.664;9.908;2022-10-16T04:48:29;3.03;;;1.38;;
20363;SDS011;10340;53.664;9.908;2022-10-16T04:50:57;2.63;;;1.50;;
20363;SDS011;10340;53.664;9.908;2022-10-16T04:53:25;3.03;;;1.92;;
20363;SDS011;10340;53.664;9.908;2022-10-16T04:55:52;3.63;;;1.40;;
20363;SDS011;10340;53.664;9.908;2022-10-16T04:58:18;1.80;;;1.50;;
20363;SDS011;10340;53.664;9.908;2022-10-16T05:00:45;1.60;;;1.50;;
20363;SDS011;10340;53.664;9.908;2022-10-16T05:03:12;2.45;;;1.67;;
20363;SDS011;10340;53.664;9.908;2022-10-16T05:05:42;1.65;;;1.55;;
20363;SDS011;10340;53.664;9.908;2022-10-16T05:08:10;2.38;;;1.58;;
20363;SDS011;10340;53.664;9.908;2022-10-16T05:10:38;2.60;;;1.90;;
20363;SDS011;10340;53.664;9.908;2022-10-16T05:13:05;2.67;;;1.60;;
20363;SDS011;10340;53.664;9.908;2022-10-16T05:15:32;2.22;;;2.03;;
20363;SDS011;10340;53.664;9.908;2022-10-16T05:17:59;2.60;;;2.40;;
20363;SDS011;10340;53.664;9.908;2022-10-16T05:20:26;2.75;;;2.42;;
20363;SDS011;10340;53.664;9.908;2022-10-16T05:22:53;3.13;;;1.95;;
20363;SDS011;10340;53.664;9.908;2022-10-16T05:25:21;3.30;;;2.13;;
20363;SDS011;10340;53.664;9.908;2022-10-16T05:27:48;4.15;;;2.45;;
20363;SDS011;10340;53.664;9.908;2022-10-16T05:30:16;4.72;;;2.35;;
20363;SDS011;10340;53.664;9.908;2022-10-16T05:32:46;4.05;;;2.53;;
20363;SDS011;10340;53.664;9.908;2022-10-16T05:35:15;2.35;;;2.15;;
20363;SDS011;10340;53.664;9.908;2022-10-16T05:37:44;3.90;;;2.78;;
20363;SDS011;10340;53.664;9.908;2022-10-16T05:40:12;3.53;;;2.70;;
20363;SDS011;10340;53.664;9.908;2022-10-16T05:42:41;4.60;;;2.53;;
20363;SDS011;10340;53.664;9.908;2022-10-16T05:45:08;3.40;;;2.50;;
20363;SDS011;10340;53.664;9.908;2022-10-16T05:47:36;4.93;;;2.58;;
20363;SDS011;10340;53.664;9.908;2022-10-16T05:50:03;5.03;;;3.13;;
20363;SDS011;10340;53.664;9.908;2022-10-16T05:52:30;3.67;;;2.60;;
20363;SDS011;10340;53.664;9.908;2022-10-16T05:54:57;3.60;;;2.80;;
20363;SDS011;10340;53.664;9.908;2022-10-16T05:57:24;3.88;;;2.65;;
20363;SDS011;10340;53.664;9.908;2022-10-16T05:59:52;3.72;;;2.75;;
20363;SDS011;10340;53.664;9.908;2022-10-16T06:02:19;4.70;;;2.85;;
20363;SDS011;10340;53.664;9.908;2022-10-16T06:04:46;4.35;;;2.60;;
20363;SDS011;10340;53.664;9.908;2022-10-16T06:07:13;4.55;;;2.70;;
20363;SDS011;10340;53.664;9.908;2022-10-16T06:09:39;5.55;;;3.00;;
20363;SDS011;10340;53.664;9.908;2022-10-16T06:12:06;3.08;;;2.42;;
20363;SDS011;10340;53.664;9.908;2022-10-16T06:14:33;3.13;;;2.60;;
20363;SDS011;10340;53.664;9.908;2022-10-16T06:17:01;3.45;;;2.88;;
20363;SDS011;10340;53.664;9.908;2022-10-16T06:19:28;4.63;;;2.45;;
20363;SDS011;10340;53.664;9.908;2022-10-16T06:21:56;3.45;;;2.50;;
20363;SDS011;10340;53.664;9.908;2022-10-16T06:24:23;4.47;;;2.47;;
20363;SDS011;10340;53.664;9.908;2022-10-16T06:26:50;5.30;;;2.53;;
20363;SDS011;10340;53.664;9.908;2022-10-16T06:29:17;5.22;;;2.88;;
20363;SDS011;10340;53.664;9.908;2022-10-16T06:31:44;2.55;;;2.33;;
20363;SDS011;10340;53.664;9.908;2022-10-16T06:34:12;3.95;;;2.65;;
20363;SDS011;10340;53.664;9.908;2022-10-16T06:36:39;2.97;;;2.63;;
20363;SDS011;10340;53.664;9.908;2022-10-16T06:39:06;3.40;;;2.85;;
20363;SDS011;10340;53.664;9.908;2022-10-16T06:41:33;7.05;;;2.42;;
20363;SDS011;10340;53.664;9.908;2022-10-16T06:44:00;3.28;;;2.28;;
20363;SDS011;10340;53.664;9.908;2022-10-16T06:46:30;4.90;;;2.85;;
20363;SDS011;10340;53.664;9.908;2022-10-16T06:48:57;2.95;;;2.30;;
20363;SDS011;10340;53.664;9.908;2022-10-16T06:51:25;4.70;;;3.05;;
20363;SDS011;10340;53.664;9.908;2022-10-16T06:53:54;3.53;;;2.50;;
20363;SDS011;10340;53.664;9.908;2022-10-16T06:56:23;4.18;;;2.58;;
20363;SDS011;10340;53.664;9.908;2022-10-16T06:58:51;4.07;;;2.55;;
20363;SDS011;10340;53.664;9.908;2022-10-16T07:01:19;5.32;;;2.80;;
20363;SDS011;10340;53.664;9.908;2022-10-16T07:03:47;5.53;;;3.42;;
20363;SDS011;10340;53.664;9.908;2022-10-16T07:06:15;3.83;;;2.83;;
20363;SDS011;10340;53.664;9.908;2022-10-16T07:08:45;3.90;;;2.67;;
20363;SDS011;10340;53.664;9.908;2022-10-16T07:11:14;5.28;;;2.92;;
20363;SDS011;10340;53.664;9.908;2022-10-16T07:13:42;4.13;;;3.38;;
20363;SDS011;10340;53.664;9.908;2022-10-16T07:16:10;6.38;;;2.92;;
20363;SDS011;10340;53.664;9.908;2022-10-16T07:18:38;4.93;;;3.22;;
20363;SDS011;10340;53.664;9.908;2022-10-16T07:21:08;3.67;;;2.70;;
20363;SDS011;10340;53.664;9.908;2022-10-16T07:23:36;8.82;;;3.70;;
20363;SDS011;10340;53.664;9.908;2022-10-16T07:26:04;4.13;;;2.90;;
20363;SDS011;10340;53.664;9.908;2022-10-16T07:28:31;5.55;;;3.20;;
20363;SDS011;10340;53.664;9.908;2022-10-16T07:31:00;4.07;;;3.35;;
20363;SDS011;10340;53.664;9.908;2022-10-16T07:33:28;7.13;;;3.55;;
20363;SDS011;10340;53.664;9.908;2022-10-16T07:35:56;4.32;;;2.95;;
20363;SDS011;10340;53.664;9.908;2022-10-16T07:38:23;4.28;;;3.40;;
20363;SDS011;10340;53.664;9.908;2022-10-16T07:40:55;5.18;;;3.03;;
20363;SDS011;10340;53.664;9.908;2022-10-16T07:43:24;4.57;;;3.40;;
20363;SDS011;10340;53.664;9.908;2022-10-16T07:45:52;3.65;;;2.90;;
20363;SDS011;10340;53.664;9.908;2022-10-16T07:48:20;5.15;;;3.38;;
20363;SDS011;10340;53.664;9.908;2022-10-16T07:50:47;4.68;;;3.58;;
20363;SDS011;10340;53.664;9.908;2022-10-16T07:53:14;7.20;;;3.22;;
20363;SDS011;10340;53.664;9.908;2022-10-16T07:55:41;4.72;;;2.97;;
20363;SDS011;10340;53.664;9.908;2022-10-16T07:58:08;3.20;;;2.90;;
20363;SDS011;10340;53.664;9.908;2022-10-16T08:00:37;5.95;;;3.42;;
20363;SDS011;10340;53.664;9.908;2022-10-16T08:03:04;4.47;;;3.22;;
20363;SDS011;10340;53.664;9.908;2022-10-16T08:05:31;5.55;;;3.30;;
20363;SDS011;10340;53.664;9.908;2022-10-16T08:07:58;6.97;;;3.47;;
20363;SDS011;10340;53.664;9.908;2022-10-16T08:10:26;3.70;;;3.40;;
20363;SDS011;10340;53.664;9.908;2022-10-16T08:12:53;4.30;;;3.25;;
20363;SDS011;10340;53.664;9.908;2022-10-16T08:15:20;4.35;;;3.28;;
20363;SDS011;10340;53.664;9.908;2022-10-16T08:17:55;5.80;;;3.38;;
20363;SDS011;10340;53.664;9.908;2022-10-16T08:20:23;4.78;;;3.00;;
20363;SDS011;10340;53.664;9.908;2022-10-16T08:22:49;5.50;;;3.60;;
20363;SDS011;10340;53.664;9.908;2022-10-16T08:25:16;4.15;;;3.42;;
20363;SDS011;10340;53.664;9.908;2022-10-16T08:27:43;3.53;;;3.22;;
20363;SDS011;10340;53.664;9.908;2022-10-16T08:30:10;3.58;;;3.22;;
20363;SDS011;10340;53.664;9.908;2022-10-16T08:32:38;3.60;;;3.20;;
20363;SDS011;10340;53.664;9.908;2022-10-16T08:35:08;5.15;;;3.40;;
20363;SDS011;10340;53.664;9.908;2022-10-16T08:37:35;3.92;;;2.95;;
20363;SDS011;10340;53.664;9.908;2022-10-16T08:40:02;6.57;;;3.72;;
20363;SDS011;10340;53.664;9.908;2022-10-16T08:42:32;4.30;;;3.10;;
20363;SDS011;10340;53.664;9.908;2022-10-16T08:45:26;3.85;;;2.90;;
20363;SDS011;10340;53.664;9.908;2022-10-16T08:48:05;3.47;;;2.85;;
20363;SDS011;10340;53.664;9.908;2022-10-16T08:50:42;3.35;;;2.67;;
20363;SDS011;10340;53.664;9.908;2022-10-16T08:53:11;3.70;;;2.80;;
20363;SDS011;10340;53.664;9.908;2022-10-16T08:55:45;4.22;;;2.83;;
20363;SDS011;10340;53.664;9.908;2022-10-16T08:58:13;4.10;;;2.58;;
20363;SDS011;10340;53.664;9.908;2022-10-16T09:00:42;3.13;;;2.60;;
20363;SDS011;10340;53.664;9.908;2022-10-16T09:03:14;4.65;;;2.50;;
20363;SDS011;10340;53.664;9.908;2022-10-16T09:05:54;3.30;;;2.58;;
20363;SDS011;10340;53.664;9.908;2022-10-16T09:08:29;4.85;;;2.50;;
20363;SDS011;10340;53.664;9.908;2022-10-16T09:11:03;2.85;;;2.45;;
20363;SDS011;10340;53.664;9.908;2022-10-16T09:13:41;3.63;;;2.03;;
20363;SDS011;10340;53.664;9.908;2022-10-16T09:16:15;3.42;;;2.30;;
20363;SDS011;10340;53.664;9.908;2022-10-16T09:18:48;3.03;;;1.80;;
20363;SDS011;10340;53.664;9.908;2022-10-16T09:21:23;3.05;;;2.03;;
20363;SDS011;10340;53.664;9.908;2022-10-16T09:23:51;5.38;;;1.77;;
20363;SDS011;10340;53.664;9.908;2022-10-16T09:26:20;4.13;;;2.10;;
20363;SDS011;10340;53.664;9.908;2022-10-16T09:28:47;2.92;;;2.42;;
20363;SDS011;10340;53.664;9.908;2022-10-16T09:31:17;3.65;;;2.10;;
20363;SDS011;10340;53.664;9.908;2022-10-16T09:33:47;2.40;;;1.88;;
20363;SDS011;10340;53.664;9.908;2022-10-16T09:36:16;2.88;;;1.60;;
20363;SDS011;10340;53.664;9.908;2022-10-16T09:38:45;2.75;;;1.70;;
20363;SDS011;10340;53.664;9.908;2022-10-16T09:41:14;7.13;;;2.20;;
20363;SDS011;10340;53.664;9.908;2022-10-16T09:43:46;2.88;;;1.60;;
20363;SDS011;10340;53.664;9.908;2022-10-16T09:46:24;2.50;;;1.70;;
20363;SDS011;10340;53.664;9.908;2022-10-16T09:48:53;2.00;;;1.80;;
20363;SDS011;10340;53.664;9.908;2022-10-16T09:51:23;2.17;;;1.50;;
20363;SDS011;10340;53.664;9.908;2022-10-16T09:53:55;2.83;;;1.50;;
20363;SDS011;10340;53.664;9.908;2022-10-16T09:56:24;3.60;;;1.70;;
20363;SDS011;10340;53.664;9.908;2022-10-16T09:58:53;4.78;;;1.98;;
20363;SDS011;10340;53.664;9.908;2022-10-16T10:01:21;2.97;;;1.58;;
20363;SDS011;10340;53.664;9.908;2022-10-16T10:03:55;2.80;;;1.60;;
20363;SDS011;10340;53.664;9.908;2022-10-16T10:06:26;3.20;;;1.70;;
20363;SDS011;10340;53.664;9.908;2022-10-16T10:08:58;2.97;;;1.85;;
20363;SDS011;10340;53.664;9.908;2022-10-16T10:11:41;2.70;;;1.50;;
20363;SDS011;10340;53.664;9.908;2022-10-16T10:14:20;3.50;;;1.80;;
20363;SDS011;10340;53.664;9.908;2022-10-16T10:16:49;2.53;;;1.33;;
20363;SDS011;10340;53.664;9.908;2022-10-16T10:19:17;3.47;;;1.77;;
20363;SDS011;10340;53.664;9.908;2022-10-16T10:21:45;3.53;;;1.52;;
20363;SDS011;10340;53.664;9.908;2022-10-16T10:24:14;5.60;;;1.88;;
20363;SDS011;10340;53.664;9.908;2022-10-16T10:26:45;3.08;;;1.60;;
20363;SDS011;10340;53.664;9.908;2022-10-16T10:29:24;2.40;;;2.20;;
20363;SDS011;10340;53.664;9.908;2022-10-16T10:32:11;2.83;;;1.30;;
20363;SDS011;10340;53.664;9.908;2022-10-16T10:34:55;2.72;;;1.20;;
20363;SDS011;10340;53.664;9.908;2022-10-16T10:37:51;3.83;;;1.58;;
20363;SDS011;10340;53.664;9.908;2022-10-16T10:40:39;3.47;;;1.45;;
20363;SDS011;10340;53.664;9.908;2022-10-16T10:43:14;2.85;;;1.25;;
20363;SDS011;10340;53.664;9.908;2022-10-16T10:45:54;5.28;;;1.55;;
20363;SDS011;10340;53.664;9.908;2022-10-16T10:48:38;5.90;;;1.75;;
20363;SDS011;10340;53.664;9.908;2022-10-16T10:51:19;1.88;;;1.40;;
20363;SDS011;10340;53.664;9.908;2022-10-16T10:53:55;4.60;;;1.38;;
20363;SDS011;10340;53.664;9.908;2022-10-16T10:56:41;2.63;;;1.20;;
20363;SDS011;10340;53.664;9.908;2022-10-16T10:59:23;3.22;;;1.13;;
20363;SDS011;10340;53.664;9.908;2022-10-16T11:02:15;3.05;;;1.10;;
20363;SDS011;10340;53.664;9.908;2022-10-16T11:04:55;1.75;;;1.20;;
20363;SDS011;10340;53.664;9.908;2022-10-16T11:07:47;2.22;;;1.02;;
20363;SDS011;10340;53.664;9.908;2022-10-16T11:10:18;2.28;;;1.20;;
20363;SDS011;10340;53.664;9.908;2022-10-16T11:12:51;2.03;;;1.00;;
20363;SDS011;10340;53.664;9.908;2022-10-16T11:15:21;2.60;;;1.13;;
20363;SDS011;10340;53.664;9.908;2022-10-16T11:17:54;2.75;;;1.42;;
20363;SDS011;10340;53.664;9.908;2022-10-16T11:20:25;3.78;;;1.00;;
20363;SDS011;10340;53.664;9.908;2022-10-16T11:22:56;4.65;;;0.93;;
20363;SDS011;10340;53.664;9.908;2022-10-16T11:25:28;1.58;;;0.88;;
20363;SDS011;10340;53.664;9.908;2022-10-16T11:28:03;1.90;;;0.82;;
20363;SDS011;10340;53.664;9.908;2022-10-16T11:30:39;2.55;;;0.98;;
20363;SDS011;10340;53.664;9.908;2022-10-16T11:33:13;3.97;;;1.20;;
20363;SDS011;10340;53.664;9.908;2022-10-16T11:35:51;3.42;;;0.93;;
20363;SDS011;10340;53.664;9.908;2022-10-16T11:38:24;1.95;;;0.70;;
20363;SDS011;10340;53.664;9.908;2022-10-16T11:40:58;4.45;;;1.58;;
20363;SDS011;10340;53.664;9.908;2022-10-16T11:43:34;2.25;;;1.02;;
20363;SDS011;10340;53.664;9.908;2022-10-16T11:46:07;2.40;;;1.40;;
20363;SDS011;10340;53.664;9.908;2022-10-16T11:48:38;3.25;;;1.05;;
20363;SDS011;10340;53.664;9.908;2022-10-16T11:51:11;1.48;;;0.85;;
20363;SDS011;10340;53.664;9.908;2022-10-16T11:53:45;3.60;;;1.25;;
20363;SDS011;10340;53.664;9.908;2022-10-16T11:56:20;1.00;;;0.90;;
20363;SDS011;10340;53.664;9.908;2022-10-16T11:58:51;2.72;;;1.08;;
20363;SDS011;10340;53.664;9.908;2022-10-16T12:01:25;3.20;;;0.95;;
20363;SDS011;10340;53.664;9.908;2022-10-16T12:04:01;2.88;;;1.05;;
20363;SDS011;10340;53.664;9.908;2022-10-16T12:06:36;2.17;;;0.82;;
20363;SDS011;10340;53.664;9.908;2022-10-16T12:09:09;2.90;;;1.00;;
20363;SDS011;10340;53.664;9.908;2022-10-16T12:11:44;1.95;;;1.35;;
20363;SDS011;10340;53.664;9.908;2022-10-16T12:19:57;4.07;;;1.15;;
20363;SDS011;10340;53.664;9.908;2022-10-16T12:22:26;3.65;;;1.00;;
20363;SDS011;10340;53.664;9.908;2022-10-16T12:24:56;3.80;;;1.20;;
20363;SDS011;10340;53.664;9.908;2022-10-16T12:27:24;1.73;;;1.00;;
20363;SDS011;10340;53.664;9.908;2022-10-16T12:29:56;1.33;;;1.00;;
20363;SDS011;10340;53.664;9.908;2022-10-16T12:32:29;3.17;;;0.80;;
20363;SDS011;10340;53.664;9.908;2022-10-16T12:34:58;3.15;;;1.20;;
20363;SDS011;10340;53.664;9.908;2022-10-16T12:37:27;1.45;;;0.95;;
20363;SDS011;10340;53.664;9.908;2022-10-16T12:39:57;1.92;;;0.90;;
20363;SDS011;10340;53.664;9.908;2022-10-16T12:42:32;1.92;;;0.90;;
20363;SDS011;10340;53.664;9.908;2022-10-16T12:45:01;4.07;;;0.95;;
20363;SDS011;10340;53.664;9.908;2022-10-16T12:47:47;4.00;;;1.10;;
20363;SDS011;10340;53.664;9.908;2022-10-16T12:50:26;3.03;;;0.80;;
20363;SDS011;10340;53.664;9.908;2022-10-16T12:52:57;2.03;;;1.02;;
20363;SDS011;10340;53.664;9.908;2022-10-16T12:55:24;4.28;;;0.93;;
20363;SDS011;10340;53.664;9.908;2022-10-16T12:58:06;1.77;;;0.90;;
20363;SDS011;10340;53.664;9.908;2022-10-16T13:00:44;3.63;;;0.90;;
20363;SDS011;10340;53.664;9.908;2022-10-16T13:06:12;2.25;;;1.00;;
20363;SDS011;10340;53.664;9.908;2022-10-16T13:08:53;2.10;;;0.85;;
20363;SDS011;10340;53.664;9.908;2022-10-16T13:11:43;2.58;;;0.90;;
20363;SDS011;10340;53.664;9.908;2022-10-16T13:14:36;2.03;;;0.90;;
20363;SDS011;10340;53.664;9.908;2022-10-16T13:17:27;2.20;;;1.02;;
20363;SDS011;10340;53.664;9.908;2022-10-16T13:20:04;2.30;;;0.90;;
20363;SDS011;10340;53.664;9.908;2022-10-16T13:22:44;3.42;;;1.02;;
20363;SDS011;10340;53.664;9.908;2022-10-16T13:25:20;3.85;;;0.90;;
20363;SDS011;10340;53.664;9.908;2022-10-16T13:27:55;2.15;;;0.82;;
20363;SDS011;10340;53.664;9.908;2022-10-16T13:30:30;1.40;;;0.90;;
20363;SDS011;10340;53.664;9.908;2022-10-16T13:33:02;3.08;;;0.85;;
20363;SDS011;10340;53.664;9.908;2022-10-16T13:35:33;3.15;;;1.35;;
20363;SDS011;10340;53.664;9.908;2022-10-16T13:38:05;3.85;;;1.30;;
20363;SDS011;10340;53.664;9.908;2022-10-16T13:40:47;4.38;;;1.00;;
20363;SDS011;10340;53.664;9.908;2022-10-16T13:43:16;3.00;;;1.02;;
20363;SDS011;10340;53.664;9.908;2022-10-16T13:45:52;3.30;;;1.30;;
20363;SDS011;10340;53.664;9.908;2022-10-16T13:48:21;3.40;;;1.10;;
20363;SDS011;10340;53.664;9.908;2022-10-16T13:50:57;1.38;;;1.15;;
20363;SDS011;10340;53.664;9.908;2022-10-16T13:53:25;2.50;;;1.10;;
20363;SDS011;10340;53.664;9.908;2022-10-16T13:55:52;3.00;;;1.20;;
20363;SDS011;10340;53.664;9.908;2022-10-16T13:58:19;2.85;;;1.10;;
20363;SDS011;10340;53.664;9.908;2022-10-16T14:00:53;4.43;;;1.13;;
20363;SDS011;10340;53.664;9.908;2022-10-16T14:03:23;1.25;;;0.73;;
20363;SDS011;10340;53.664;9.908;2022-10-16T14:05:52;4.40;;;1.20;;
20363;SDS011;10340;53.664;9.908;2022-10-16T14:08:20;3.55;;;0.80;;
20363;SDS011;10340;53.664;9.908;2022-10-16T14:10:49;2.20;;;0.82;;
20363;SDS011;10340;53.664;9.908;2022-10-16T14:13:17;2.70;;;1.50;;
20363;SDS011;10340;53.664;9.908;2022-10-16T14:15:55;2.22;;;1.23;;
20363;SDS011;10340;53.664;9.908;2022-10-16T14:18:25;3.22;;;0.90;;
20363;SDS011;10340;53.664;9.908;2022-10-16T14:20:53;3.10;;;1.20;;
20363;SDS011;10340;53.664;9.908;2022-10-16T14:23:21;4.25;;;1.00;;
20363;SDS011;10340;53.664;9.908;2022-10-16T14:25:51;2.95;;;1.02;;
20363;SDS011;10340;53.664;9.908;2022-10-16T14:28:19;1.65;;;1.10;;
20363;SDS011;10340;53.664;9.908;2022-10-16T14:30:50;3.03;;;1.05;;
20363;SDS011;10340;53.664;9.908;2022-10-16T14:33:20;3.53;;;0.90;;
20363;SDS011;10340;53.664;9.908;2022-10-16T14:36:00;4.68;;;1.33;;
20363;SDS011;10340;53.664;9.908;2022-10-16T14:38:29;6.22;;;1.30;;
20363;SDS011;10340;53.664;9.908;2022-10-16T14:40:57;6.38;;;1.42;;
20363;SDS011;10340;53.664;9.908;2022-10-16T14:43:27;4.93;;;2.22;;
20363;SDS011;10340;53.664;9.908;2022-10-16T14:45:58;3.03;;;1.10;;
20363;SDS011;10340;53.664;9.908;2022-10-16T14:48:26;3.90;;;1.10;;
20363;SDS011;10340;53.664;9.908;2022-10-16T14:50:53;2.72;;;0.93;;
20363;SDS011;10340;53.664;9.908;2022-10-16T14:53:21;2.15;;;0.80;;
20363;SDS011;10340;53.664;9.908;2022-10-16T14:55:48;2.13;;;0.90;;
20363;SDS011;10340;53.664;9.908;2022-10-16T14:58:15;2.38;;;1.00;;
20363;SDS011;10340;53.664;9.908;2022-10-16T15:00:44;2.72;;;1.08;;
20363;SDS011;10340;53.664;9.908;2022-10-16T15:03:11;4.03;;;1.27;;
20363;SDS011;10340;53.664;9.908;2022-10-16T15:05:39;3.80;;;1.33;;
20363;SDS011;10340;53.664;9.908;2022-10-16T15:08:05;1.75;;;0.70;;
20363;SDS011;10340;53.664;9.908;2022-10-16T15:10:35;3.30;;;1.00;;
20363;SDS011;10340;53.664;9.908;2022-10-16T15:13:05;2.28;;;0.98;;
20363;SDS011;10340;53.664;9.908;2022-10-16T15:15:36;3.00;;;0.93;;